^^
Datos históricos de la estación: Murcia-Puente Tocinos
Diario Informe para Enero 28, 2022 Unidades:  Métrico    Ingés   Ambas
Diario Semanal Mensual Anual
  Máxima: Mínima: Promedio:
Temperatura: 15.9 °C 6.6 °C 10.4 °C
Punto de rocio: 8.3 °C 4.2 °C 6.3 °C
Humedad: 92% 48% 77%
Velocidad viento: 12.2km/h 0km/h 6.3km/h
Racha viento: 22.2km/h - -
Viento- - SSE
Presión: 1031.9 hPa 1028.8 hPa -
Precipitación: 0.0 mm    
 
 
Tabla de datos para Enero 28, 2022
Hora Temperatura Punto de rocio Presión Viento Velocidad viento Racha viento Humedad Intensidad lluvia(por hora) Nubes
00:04 9.7 °C 8.3 °C 1028.9 hPa SO 3.2 km/h 7.6 km/h 91% 0.0 mm
00:09 9.7 °C 8.3 °C 1029.0 hPa SO 3.5 km/h 7.6 km/h 91% 0.0 mm
00:14 9.7 °C 8.3 °C 1029.0 hPa OSO 5 km/h 4.7 km/h 91% 0.0 mm
00:19 9.6 °C 8.2 °C 1029.0 hPa OSO 4.7 km/h 5.8 km/h 91% 0.0 mm
00:24 9.5 °C 8.1 °C 1029.1 hPa OSO 2.9 km/h 5.6 km/h 91% 0.0 mm
00:29 9.4 °C 8 °C 1029.1 hPa OSO 2.9 km/h 5.8 km/h 91% 0.0 mm
00:34 9.4 °C 8 °C 1029.1 hPa Oeste 3.2 km/h 7.4 km/h 91% 0.0 mm
00:39 9.3 °C 7.9 °C 1029.2 hPa Oeste 3.2 km/h 5.8 km/h 91% 0.0 mm
00:44 9.3 °C 7.9 °C 1029.2 hPa OSO 3.2 km/h 7.4 km/h 91% 0.0 mm
00:49 9.2 °C 7.8 °C 1029.2 hPa OSO 3.3 km/h 7.4 km/h 91% 0.0 mm
00:54 9.1 °C 7.7 °C 1029.2 hPa OSO 3.9 km/h 4.7 km/h 91% 0.0 mm
00:59 9.1 °C 7.7 °C 1029.2 hPa OSO 3.5 km/h 3.7 km/h 91% 0.0 mm
01:04 9.1 °C 7.9 °C 1029.2 hPa OSO 2.3 km/h 3.9 km/h 92% 0.0 mm
01:09 9.1 °C 7.9 °C 1029.2 hPa OSO 2.3 km/h 5.6 km/h 92% 0.0 mm
01:14 9 °C 7.7 °C 1029.2 hPa OSO 2.3 km/h 7.4 km/h 91% 0.0 mm
01:19 9 °C 7.7 °C 1029.2 hPa SO 2.4 km/h 3.9 km/h 91.2% 0.0 mm
01:24 9 °C 7.6 °C 1029.2 hPa SO 2.9 km/h 5.6 km/h 91.2% 0.0 mm
01:29 9 °C 7.6 °C 1029.1 hPa SO 2.8 km/h 5 km/h 91% 0.0 mm
01:34 9 °C 7.6 °C 1029.1 hPa SO 2.3 km/h 7.4 km/h 91% 0.0 mm
01:39 9.1 °C 7.7 °C 1029.1 hPa SSO 2.7 km/h 7.6 km/h 91% 0.0 mm
01:44 9.1 °C 7.7 °C 1029.1 hPa Sur 5 km/h 5.8 km/h 91% 0.0 mm
01:49 9.2 °C 7.8 °C 1029.1 hPa SSO 4.8 km/h 7.4 km/h 91% 0.0 mm
01:54 9.2 °C 7.8 °C 1029.1 hPa ONO 3.9 km/h 7.4 km/h 91% 0.0 mm
01:59 9.3 °C 7.9 °C 1029.1 hPa ONO 3.5 km/h 5.8 km/h 91% 0.0 mm
02:04 9.3 °C 7.9 °C 1029.1 hPa Sur 2.3 km/h 5.6 km/h 91% 0.0 mm
02:09 9.3 °C 7.9 °C 1029.1 hPa Sur 2.3 km/h 5 km/h 91% 0.0 mm
02:14 9.3 °C 7.9 °C 1029.0 hPa SE 2.9 km/h 7.6 km/h 91% 0.0 mm
02:19 9.3 °C 7.9 °C 1029.0 hPa SSO 3.3 km/h 10 km/h 91% 0.0 mm
02:24 9.2 °C 7.7 °C 1029.0 hPa SSO 5.8 km/h 8.4 km/h 90.3% 0.0 mm
02:29 9.1 °C 7.6 °C 1028.9 hPa Sur 5.8 km/h 7.6 km/h 90% 0.0 mm
02:34 9.1 °C 7.6 °C 1028.9 hPa SSO 5.8 km/h 7.4 km/h 90% 0.0 mm
02:39 9.1 °C 7.6 °C 1029.0 hPa Sur 5.6 km/h 7.4 km/h 90% 0.0 mm
02:44 9.1 °C 7.6 °C 1029.0 hPa Sur 4.7 km/h 7.4 km/h 90% 0.0 mm
02:49 9 °C 7.5 °C 1029.0 hPa Sur 4.7 km/h 8.4 km/h 90% 0.0 mm
02:54 8.9 °C 7.4 °C 1029.0 hPa SSO 5 km/h 9.3 km/h 90% 0.0 mm
02:59 8.8 °C 7.3 °C 1029.0 hPa SSO 4.9 km/h 7.6 km/h 90% 0.0 mm
03:04 8.8 °C 7.2 °C 1029.0 hPa Sur 4.7 km/h 8.4 km/h 90% 0.0 mm
03:09 8.7 °C 7.2 °C 1029.1 hPa SSO 4.8 km/h 8.4 km/h 90% 0.0 mm
03:14 8.7 °C 7.2 °C 1029.1 hPa SO 5.8 km/h 8.4 km/h 90% 0.0 mm
03:19 8.7 °C 7.2 °C 1029.1 hPa SSO 5.7 km/h 8.4 km/h 90% 0.0 mm
03:24 8.6 °C 7.1 °C 1029.1 hPa SSO 5 km/h 7.6 km/h 90% 0.0 mm
03:29 8.6 °C 6.9 °C 1029.1 hPa SO 5 km/h 8.4 km/h 89% 0.0 mm
03:34 8.6 °C 6.9 °C 1029.1 hPa SSO 5 km/h 8.4 km/h 89% 0.0 mm
03:39 8.6 °C 6.9 °C 1029.3 hPa SSE 5 km/h 9.5 km/h 89% 0.0 mm
03:44 8.6 °C 6.8 °C 1029.3 hPa SSO 5 km/h 9.3 km/h 89% 0.0 mm
03:49 8.5 °C 6.8 °C 1029.3 hPa SSO 4.9 km/h 7.4 km/h 89% 0.0 mm
03:54 8.5 °C 6.7 °C 1029.3 hPa OSO 4.7 km/h 5.8 km/h 89% 0.0 mm
03:59 8.4 °C 6.7 °C 1029.1 hPa Oeste 4.4 km/h 5.8 km/h 88.9% 0.0 mm
04:04 8.4 °C 6.7 °C 1029.1 hPa Oeste 3.2 km/h 4.7 km/h 89% 0.0 mm
04:09 8.4 °C 6.7 °C 1029.1 hPa Oeste 3.2 km/h 4.7 km/h 89% 0.0 mm
04:14 8.4 °C 6.7 °C 1029.0 hPa Oeste 2.9 km/h 3.7 km/h 89% 0.0 mm
04:19 8.4 °C 6.7 °C 1029.0 hPa Oeste 2.5 km/h 4.7 km/h 89% 0.0 mm
04:24 8.4 °C 6.7 °C 1029.0 hPa Calm   7.6 km/h 89% 0.0 mm
04:29 8.3 °C 6.5 °C 1028.9 hPa SSO 0.7 km/h 11.1 km/h 88.4% 0.0 mm
04:34 8.3 °C 6.5 °C 1028.9 hPa SO 5 km/h 9.3 km/h 88.6% 0.0 mm
04:39 8.3 °C 6.6 °C 1028.9 hPa SO 5 km/h 11.1 km/h 89% 0.0 mm
04:44 8.3 °C 6.6 °C 1028.8 hPa SSE 5 km/h 9.3 km/h 89% 0.0 mm
04:49 8.3 °C 6.6 °C 1028.8 hPa Sur 4.9 km/h 8.4 km/h 89% 0.0 mm
04:54 8.4 °C 6.5 °C 1029.0 hPa SSO 3.9 km/h 7.6 km/h 88.1% 0.0 mm
04:59 8.4 °C 6.5 °C 1029.0 hPa SSO 4.1 km/h 9.3 km/h 88% 0.0 mm
05:04 8.4 °C 6.5 °C 1029.0 hPa SO 5 km/h 9.3 km/h 88% 0.0 mm
05:09 8.5 °C 6.6 °C 1029.0 hPa SO 4.9 km/h 8.7 km/h 88% 0.0 mm
05:14 8.5 °C 6.6 °C 1029.0 hPa SO 4.7 km/h 11.9 km/h 87.7% 0.0 mm
05:19 8.4 °C 6.3 °C 1029.0 hPa SO 5.2 km/h 13 km/h 87% 0.0 mm
05:24 8.3 °C 6.3 °C 1029.1 hPa SO 8.4 km/h 11.1 km/h 87% 0.0 mm
05:29 8.4 °C 6.3 °C 1029.1 hPa SSO 8.3 km/h 15.6 km/h 87% 0.0 mm
05:34 8.4 °C 6.3 °C 1029.1 hPa SSO 7.6 km/h 11.1 km/h 87% 0.0 mm
05:39 8.4 °C 6.3 °C 1029.1 hPa Sur 7.5 km/h 11.1 km/h 87% 0.0 mm
05:44 8.3 °C 6.3 °C 1029.1 hPa Sur 6.9 km/h 10 km/h 87% 0.0 mm
05:49 8.3 °C 6.3 °C 1029.1 hPa SSO 6.8 km/h 11.1 km/h 87% 0.0 mm
05:54 8.3 °C 6.2 °C 1029.1 hPa SSO 6.4 km/h 13 km/h 87% 0.0 mm
05:59 8.2 °C 6.2 °C 1029.1 hPa Sur 6.4 km/h 13 km/h 87% 0.0 mm
06:04 8.1 °C 6.1 °C 1029.1 hPa SSE 6.4 km/h 11.1 km/h 87% 0.0 mm
06:09 8.1 °C 6 °C 1029.3 hPa Sur 6.6 km/h 11.9 km/h 87% 0.0 mm
06:14 7.9 °C 5.9 °C 1029.3 hPa Sur 7.6 km/h 13.7 km/h 87% 0.0 mm
06:19 7.8 °C 5.8 °C 1029.3 hPa Sur 7.7 km/h 14 km/h 87% 0.0 mm
06:24 7.7 °C 5.7 °C 1029.3 hPa Sur 8.7 km/h 14.8 km/h 87% 0.0 mm
06:29 7.7 °C 5.7 °C 1029.3 hPa Sur 8.6 km/h 13 km/h 87% 0.0 mm
06:34 7.7 °C 5.7 °C 1029.3 hPa SSO 8.4 km/h 13 km/h 87% 0.0 mm
06:39 7.7 °C 5.7 °C 1029.5 hPa Sur 8.4 km/h 14 km/h 87% 0.0 mm
06:44 7.7 °C 5.6 °C 1029.5 hPa Sur 8.4 km/h 14.8 km/h 87% 0.0 mm
06:49 7.6 °C 5.6 °C 1029.5 hPa Sur 8.6 km/h 15.6 km/h 87% 0.0 mm
06:54 7.6 °C 5.6 °C 1029.5 hPa SSO 10 km/h 16.7 km/h 87% 0.0 mm
06:59 7.6 °C 5.6 °C 1029.4 hPa SSO 10 km/h 16.7 km/h 87% 0.0 mm
07:04 7.6 °C 5.6 °C 1029.4 hPa Sur 10 km/h 13 km/h 86.8% 0.0 mm
07:09 7.6 °C 5.4 °C 1029.6 hPa Sur 9.8 km/h 14.8 km/h 86% 0.0 mm
07:14 7.6 °C 5.4 °C 1029.6 hPa Sur 8.7 km/h 14.8 km/h 86% 0.0 mm
07:19 7.5 °C 5.3 °C 1029.6 hPa SSO 8.9 km/h 15.6 km/h 86% 0.0 mm
07:24 7.3 °C 5.2 °C 1029.7 hPa Sur 10 km/h 14.8 km/h 86% 0.0 mm
07:29 7.2 °C 5.1 °C 1029.7 hPa Sur 9.9 km/h 15.6 km/h 86% 0.0 mm
07:34 7.2 °C 5.1 °C 1029.7 hPa Sur 9.5 km/h 13 km/h 86.9% 0.0 mm
07:39 7.1 °C 5 °C 1029.8 hPa Sur 9.5 km/h 16.7 km/h 86.8% 0.0 mm
07:44 7.1 °C 5 °C 1029.8 hPa SSO 9.5 km/h 13.7 km/h 87% 0.0 mm
07:49 7 °C 5 °C 1029.8 hPa SSO 9.5 km/h 16.7 km/h 87% 0.0 mm
07:54 7.1 °C 5 °C 1030.0 hPa Sur 9.5 km/h 14.8 km/h 86.8% 0.0 mm
07:59 7 °C 4.9 °C 1030.0 hPa SSO 9.5 km/h 16.1 km/h 86% 0.0 mm
08:04 7 °C 4.8 °C 1030.0 hPa SSO 9.5 km/h 16.7 km/h 86% 0.0 mm
08:09 7 °C 4.8 °C 1030.3 hPa SSO 9.5 km/h 18.5 km/h 86% 0.0 mm
08:14 6.9 °C 4.7 °C 1030.3 hPa SSO 9.5 km/h 18.5 km/h 86% 0.0 mm
08:19 6.9 °C 4.7 °C 1030.3 hPa SSO 9.6 km/h 14.8 km/h 86% 0.0 mm
08:24 6.9 °C 4.5 °C 1030.4 hPa SSO 10.3 km/h 13.7 km/h 85.1% 0.0 mm
08:29 6.8 °C 4.4 °C 1030.4 hPa SSO 10.1 km/h 16.7 km/h 85% 0.0 mm
08:34 6.8 °C 4.4 °C 1030.4 hPa SSO 8.7 km/h 15.6 km/h 85% 0.0 mm
08:39 6.7 °C 4.3 °C 1030.4 hPa SSO 9.1 km/h 18.5 km/h 85% 0.0 mm
08:44 6.7 °C 4.3 °C 1030.4 hPa SSO 11.1 km/h 13.7 km/h 85% 0.0 mm
08:49 6.7 °C 4.3 °C 1030.4 hPa SSO 10.7 km/h 16.7 km/h 85% 0.0 mm
08:54 6.7 °C 4.3 °C 1030.7 hPa SSO 8.7 km/h 15.6 km/h 85% 0.0 mm
08:59 6.7 °C 4.3 °C 1030.7 hPa SSO 8.8 km/h 17.2 km/h 84.7% 0.0 mm
09:04 6.6 °C 4.3 °C 1030.7 hPa SSO 9.5 km/h 14 km/h 85% 0.0 mm
09:09 6.6 °C 4.3 °C 1030.9 hPa Sur 9.5 km/h 14.8 km/h 85% 0.0 mm
09:14 6.6 °C 4.3 °C 1030.9 hPa Sur 9.5 km/h 13 km/h 85% 0.0 mm
09:19 6.7 °C 4.3 °C 1030.9 hPa SSO 9.4 km/h 13.7 km/h 85% 0.0 mm
09:24 6.7 °C 4.4 °C 1031.1 hPa SSO 8.7 km/h 14.8 km/h 85% 0.0 mm
09:29 6.8 °C 4.5 °C 1031.1 hPa SSO 8.9 km/h 13.7 km/h 85% 0.0 mm
09:34 6.9 °C 4.4 °C 1031.1 hPa SSO 10 km/h 16.7 km/h 84.1% 0.0 mm
09:39 7.1 °C 4.5 °C 1031.1 hPa SSO 10 km/h 14.8 km/h 84% 0.0 mm
09:44 7.2 °C 4.6 °C 1031.1 hPa SSO 10 km/h 13 km/h 84% 0.0 mm
09:49 7.3 °C 4.7 °C 1031.1 hPa SSO 9.9 km/h 13.7 km/h 83.5% 0.0 mm
09:54 7.5 °C 4.8 °C 1031.2 hPa SSO 9.5 km/h 13 km/h 83% 0.0 mm
09:59 7.7 °C 4.9 °C 1031.2 hPa SSO 9.3 km/h 14.8 km/h 82.3% 0.0 mm
10:04 7.8 °C 5 °C 1031.2 hPa SSO 8.7 km/h 11.1 km/h 82% 0.0 mm
10:09 7.9 °C 4.9 °C 1031.4 hPa SSO 8.4 km/h 16.7 km/h 81.7% 0.0 mm
10:14 8.1 °C 5 °C 1031.4 hPa SO 6.9 km/h 16.7 km/h 81% 0.0 mm
10:19 8.2 °C 5 °C 1031.4 hPa SO 7.3 km/h 18.5 km/h 80.4% 0.0 mm
10:24 8.2 °C 5 °C 1031.5 hPa SO 10 km/h 11.1 km/h 80% 0.0 mm
10:29 8.3 °C 5.1 °C 1031.5 hPa SO 9.6 km/h 13.7 km/h 80% 0.0 mm
10:34 8.4 °C 5.1 °C 1031.5 hPa SSO 7.6 km/h 13 km/h 79.7% 0.0 mm
10:39 8.6 °C 5.2 °C 1031.6 hPa SSO 7.6 km/h 14.8 km/h 79.5% 0.0 mm
10:44 8.6 °C 5.2 °C 1031.6 hPa SSO 7.6 km/h 14.8 km/h 79% 0.0 mm
10:49 8.7 °C 5.2 °C 1031.6 hPa SSO 7.6 km/h 11.9 km/h 78.9% 0.0 mm
10:54 8.7 °C 5.1 °C 1031.7 hPa SSO 7.6 km/h 11.1 km/h 78% 0.0 mm
10:59 8.8 °C 5 °C 1031.7 hPa SSO 7.5 km/h 14.8 km/h 77.1% 0.0 mm
11:04 8.8 °C 4.9 °C 1031.7 hPa SSO 6.9 km/h 13 km/h 76.5% 0.0 mm
11:09 8.9 °C 5.1 °C 1031.8 hPa Sur 7.1 km/h 11.1 km/h 76.8% 0.0 mm
11:14 9.1 °C 5.1 °C 1031.8 hPa SSO 8.4 km/h 14.8 km/h 76% 0.0 mm
11:19 9.1 °C 5.1 °C 1031.8 hPa Sur 8.6 km/h 16.7 km/h 76% 0.0 mm
11:24 9 °C 5 °C 1031.9 hPa Sur 10 km/h 13 km/h 76% 0.0 mm
11:29 9.1 °C 5.2 °C 1031.9 hPa SSO 9.8 km/h 14.8 km/h 76.8% 0.0 mm
11:34 9.2 °C 5.3 °C 1031.9 hPa SSO 8.7 km/h 13 km/h 76.3% 0.0 mm
11:39 9.3 °C 5.3 °C 1031.9 hPa Sur 8.6 km/h 13.7 km/h 76% 0.0 mm
11:44 9.4 °C 5.2 °C 1031.9 hPa SSO 8.4 km/h 13.7 km/h 75.1% 0.0 mm
11:49 9.4 °C 5.2 °C 1031.9 hPa SSO 8.6 km/h 15.6 km/h 75% 0.0 mm
11:54 9.5 °C 5.5 °C 1031.9 hPa SSO 10 km/h 11.9 km/h 75.9% 0.0 mm
11:59 9.8 °C 5.7 °C 1031.9 hPa Sur 9.4 km/h 11.1 km/h 75.8% 0.0 mm
12:04 10.1 °C 5.9 °C 1031.9 hPa Sur 6.9 km/h 14.8 km/h 74.8% 0.0 mm
12:09 10.2 °C 5.8 °C 1031.9 hPa Sur 7 km/h 13.7 km/h 74% 0.0 mm
12:14 10.4 °C 5.9 °C 1031.7 hPa SSO 7.6 km/h 11.9 km/h 74% 0.0 mm
12:19 10.5 °C 6.1 °C 1031.7 hPa SSO 7.6 km/h 11.1 km/h 74% 0.0 mm
12:24 10.8 °C 6.2 °C 1031.7 hPa Sur 7.6 km/h 14 km/h 73.3% 0.0 mm
12:29 11.1 °C 6.3 °C 1031.5 hPa Sur 7.7 km/h 14.8 km/h 72.3% 0.0 mm
12:34 11.3 °C 6.3 °C 1031.5 hPa Sur 8.7 km/h 13 km/h 71.5% 0.0 mm
12:39 11.4 °C 6.3 °C 1031.5 hPa SSE 8.6 km/h 13 km/h 71% 0.0 mm
12:44 11.6 °C 6.4 °C 1031.2 hPa Sur 8.4 km/h 13 km/h 70.1% 0.0 mm
12:49 11.7 °C 6.4 °C 1031.2 hPa SSE 8.3 km/h 11.9 km/h 70% 0.0 mm
12:54 11.8 °C 6.3 °C 1031.2 hPa Sur 7.6 km/h 13 km/h 69.1% 0.0 mm
12:59 12.1 °C 6.7 °C 1031.0 hPa SSE 7.2 km/h 10 km/h 69.8% 0.0 mm
13:04 12.3 °C 6.7 °C 1031.0 hPa OSO 5.8 km/h 9.3 km/h 68.5% 0.0 mm
13:09 12.5 °C 6.9 °C 1031.0 hPa OSO 5.4 km/h 9.3 km/h 68.7% 0.0 mm
13:14 12.7 °C 6.7 °C 1030.7 hPa SO 3.2 km/h 9.3 km/h 67% 0.0 mm
13:19 12.8 °C 6.9 °C 1030.7 hPa ESE 3.2 km/h 8.4 km/h 67% 0.0 mm
13:24 13 °C 6.8 °C 1030.7 hPa SSO 3.2 km/h 9.5 km/h 66.1% 0.0 mm
13:29 13.1 °C 6.9 °C 1030.4 hPa OSO 3.5 km/h 9.3 km/h 66% 0.0 mm
13:34 13.2 °C 7 °C 1030.4 hPa North 5 km/h 10 km/h 66.3% 0.0 mm
13:39 13.3 °C 7.1 °C 1030.4 hPa NE 4.7 km/h 5 km/h 66% 0.0 mm
13:44 13.6 °C 7.3 °C 1030.2 hPa ENE 2.9 km/h 5.8 km/h 65.4% 0.0 mm
13:49 13.9 °C 7.3 °C 1030.2 hPa NNO 2.9 km/h 7.4 km/h 64.3% 0.0 mm
13:54 14.1 °C 7.3 °C 1030.2 hPa NO 3.2 km/h 7.4 km/h 64% 0.0 mm
13:59 14.2 °C 7.4 °C 1030.0 hPa NNO 3.2 km/h 7.4 km/h 63.6% 0.0 mm
14:04 14.2 °C 7.3 °C 1030.0 hPa NNO 3.2 km/h 7.4 km/h 63% 0.0 mm
14:09 14.3 °C 7.3 °C 1030.0 hPa ENE 3.3 km/h 10 km/h 62.7% 0.0 mm
14:14 14.4 °C 7.2 °C 1029.8 hPa NNE 3.9 km/h 9.5 km/h 62% 0.0 mm
14:19 14.5 °C 7.2 °C 1029.8 hPa NNO 3.9 km/h 6.4 km/h 61.5% 0.0 mm
14:24 14.6 °C 7.1 °C 1029.8 hPa North 3.9 km/h 12.2 km/h 60.9% 0.0 mm
14:29 14.6 °C 7.1 °C 1029.5 hPa North 4.1 km/h 13 km/h 60.6% 0.0 mm
14:34 14.7 °C 7.2 °C 1029.5 hPa NNO 5.8 km/h 12.2 km/h 60.9% 0.0 mm
14:39 14.7 °C 7 °C 1029.5 hPa NNE 5.8 km/h 13 km/h 59.8% 0.0 mm
14:44 14.7 °C 6.9 °C 1029.4 hPa NE 5.8 km/h 11.1 km/h 59.5% 0.0 mm
14:49 14.8 °C 6.8 °C 1029.4 hPa NE 5.8 km/h 10 km/h 59% 0.0 mm
14:54 14.8 °C 7 °C 1029.4 hPa NE 5.8 km/h 9.5 km/h 59.4% 0.0 mm
14:59 15 °C 7.2 °C 1029.3 hPa ENE 5.9 km/h 12.2 km/h 59.6% 0.0 mm
15:04 15.1 °C 7.1 °C 1029.3 hPa North 6.4 km/h 13 km/h 58.9% 0.0 mm
15:09 15.1 °C 7.1 °C 1029.3 hPa NNE 6.4 km/h 14.8 km/h 58.6% 0.0 mm
15:14 15.2 °C 7 °C 1029.1 hPa NNE 6.4 km/h 11.1 km/h 58% 0.0 mm
15:19 15.3 °C 6.7 °C 1029.1 hPa NE 6.7 km/h 15.6 km/h 56.7% 0.0 mm
15:24 15.3 °C 6.8 °C 1029.1 hPa NNE 8.4 km/h 13 km/h 56.9% 0.0 mm
15:29 15.3 °C 6.7 °C 1029.0 hPa NE 8.4 km/h 18.5 km/h 56.3% 0.0 mm
15:34 15.4 °C 6.4 °C 1029.0 hPa NE 8.4 km/h 18.5 km/h 55% 0.0 mm
15:39 15.4 °C 6.2 °C 1029.0 hPa NE 8.7 km/h 18.5 km/h 54.2% 0.0 mm
15:44 15.6 °C 6.5 °C 1028.9 hPa NE 10.3 km/h 20.1 km/h 54.4% 0.0 mm
15:49 15.6 °C 6.1 °C 1028.9 hPa NNE 10.5 km/h 20.4 km/h 53.2% 0.0 mm
15:54 15.7 °C 6.1 °C 1028.9 hPa NE 11.9 km/h 16.7 km/h 52.9% 0.0 mm
15:59 15.8 °C 6.2 °C 1028.8 hPa NE 11.2 km/h 20.4 km/h 53% 0.0 mm
16:04 15.8 °C 5.8 °C 1028.8 hPa NE 8.7 km/h 19.8 km/h 51.6% 0.0 mm
16:09 15.8 °C 5.6 °C 1028.8 hPa NE 9.2 km/h 20.4 km/h 50.9% 0.0 mm
16:14 15.7 °C 5.4 °C 1028.8 hPa NE 12.2 km/h 22.2 km/h 50.5% 0.0 mm
16:19 15.8 °C 5.7 °C 1028.8 hPa NE 11.9 km/h 16.7 km/h 51.4% 0.0 mm
16:24 15.8 °C 5.3 °C 1028.9 hPa NE 10.3 km/h 17.2 km/h 49.5% 0.0 mm
16:29 15.9 °C 5.3 °C 1028.9 hPa NE 10.2 km/h 17.2 km/h 49.3% 0.0 mm
16:34 15.9 °C 5.7 °C 1028.9 hPa NE 9.5 km/h 14.8 km/h 50.7% 0.0 mm
16:39 15.9 °C 5.9 °C 1028.9 hPa NE 9.6 km/h 17.2 km/h 51.4% 0.0 mm
16:44 15.9 °C 5.4 °C 1028.9 hPa NE 10 km/h 18.5 km/h 49.7% 0.0 mm
16:49 15.9 °C 5.6 °C 1028.9 hPa NE 10 km/h 19 km/h 50.5% 0.0 mm
16:54 15.8 °C 6.1 °C 1028.9 hPa NE 10.3 km/h 18.5 km/h 52.2% 0.0 mm
16:59 15.9 °C 6.3 °C 1028.8 hPa NE 10 km/h 14.8 km/h 53% 0.0 mm
17:04 15.9 °C 6.3 °C 1028.8 hPa NE 8.7 km/h 14.8 km/h 52.8% 0.0 mm
17:09 15.8 °C 6.2 °C 1028.9 hPa NE 8.6 km/h 18.5 km/h 52.7% 0.0 mm
17:14 15.7 °C 5.8 °C 1028.9 hPa NE 8.4 km/h 18.5 km/h 51.7% 0.0 mm
17:19 15.7 °C 5.5 °C 1028.9 hPa NE 8.6 km/h 19 km/h 51% 0.0 mm
17:24 15.6 °C 5.2 °C 1028.9 hPa NE 10 km/h 18.5 km/h 50% 0.0 mm
17:29 15.5 °C 4.8 °C 1028.9 hPa NE 9.9 km/h 14.8 km/h 49.1% 0.0 mm
17:34 15.4 °C 4.7 °C 1028.9 hPa NE 9.5 km/h 16.4 km/h 49% 0.0 mm
17:39 15.3 °C 4.3 °C 1029.0 hPa NE 9.6 km/h 18.5 km/h 48% 0.0 mm
17:44 15.2 °C 4.3 °C 1029.0 hPa NE 10 km/h 14.8 km/h 48% 0.0 mm
17:49 15.1 °C 4.2 °C 1029.0 hPa NE 9.8 km/h 13.7 km/h 48% 0.0 mm
17:54 14.9 °C 4.3 °C 1029.1 hPa NE 8.7 km/h 15.6 km/h 49% 0.0 mm
17:59 14.8 °C 4.8 °C 1029.1 hPa NE 8.6 km/h 11.1 km/h 51.1% 0.0 mm
18:04 14.8 °C 5.4 °C 1029.1 hPa NE 8.4 km/h 11.1 km/h 53.6% 0.0 mm
18:09 14.7 °C 5.9 °C 1029.2 hPa NE 8 km/h 9.3 km/h 55.9% 0.0 mm
18:14 14.5 °C 6.2 °C 1029.2 hPa NE 6.4 km/h 9.5 km/h 57.6% 0.0 mm
18:19 14.3 °C 6.5 °C 1029.2 hPa NE 6.2 km/h 8.4 km/h 59.1% 0.0 mm
18:24 14.2 °C 6.6 °C 1029.2 hPa ENE 5 km/h 8.4 km/h 60.4% 0.0 mm
18:29 14.1 °C 6.7 °C 1029.2 hPa Este 4.9 km/h 7.4 km/h 61% 0.0 mm
18:34 13.9 °C 6.7 °C 1029.2 hPa Este 4.7 km/h 7.4 km/h 62% 0.0 mm
18:39 13.8 °C 6.7 °C 1029.4 hPa Este 4.6 km/h 7.4 km/h 62.1% 0.0 mm
18:44 13.7 °C 6.8 °C 1029.4 hPa ENE 3.9 km/h 5.6 km/h 63% 0.0 mm
18:49 13.6 °C 6.7 °C 1029.4 hPa ENE 3.8 km/h 5.6 km/h 63.4% 0.0 mm
18:54 13.4 °C 6.8 °C 1029.4 hPa NNE 3.2 km/h 7.4 km/h 64.3% 0.0 mm
18:59 13.3 °C 6.9 °C 1029.3 hPa NNE 3.5 km/h 8.4 km/h 65.6% 0.0 mm
19:04 13.2 °C 7.1 °C 1029.3 hPa NNE 4.7 km/h 8.7 km/h 67% 0.0 mm
19:09 13 °C 7.2 °C 1029.3 hPa NE 5 km/h 9.5 km/h 68% 0.0 mm
19:14 12.8 °C 7.1 °C 1029.3 hPa NE 6.4 km/h 9.3 km/h 68% 0.0 mm
19:19 12.8 °C 7 °C 1029.3 hPa NE 6.3 km/h 8.4 km/h 68% 0.0 mm
19:24 12.7 °C 7.1 °C 1029.6 hPa NE 5.8 km/h 7.4 km/h 68.7% 0.0 mm
19:29 12.6 °C 7 °C 1029.6 hPa NE 5.6 km/h 7.4 km/h 69% 0.0 mm
19:34 12.4 °C 7 °C 1029.6 hPa NE 4.7 km/h 7.4 km/h 69.5% 0.0 mm
19:39 12.3 °C 7 °C 1029.7 hPa NNE 4.7 km/h 7.4 km/h 70.4% 0.0 mm
19:44 12.2 °C 7.1 °C 1029.7 hPa NE 5 km/h 5 km/h 71.1% 0.0 mm
19:49 12 °C 7.1 °C 1029.7 hPa NE 4.7 km/h 7.4 km/h 72% 0.0 mm
19:54 11.8 °C 7.1 °C 1029.9 hPa North 3.2 km/h 5.6 km/h 73% 0.0 mm
19:59 11.6 °C 7.1 °C 1029.9 hPa North 3.1 km/h 4.7 km/h 73.9% 0.0 mm
20:04 11.4 °C 7.1 °C 1029.9 hPa North 2.9 km/h 5.6 km/h 74.9% 0.0 mm
20:09 11.3 °C 7.2 °C 1030.2 hPa NE 2.9 km/h 4.7 km/h 75.9% 0.0 mm
20:14 11.2 °C 7.3 °C 1030.2 hPa NE 3.2 km/h 3.9 km/h 76.8% 0.0 mm
20:19 11.1 °C 7.3 °C 1030.2 hPa NE 3.2 km/h 5.8 km/h 77.4% 0.0 mm
20:24 10.9 °C 7.2 °C 1030.2 hPa NE 2.9 km/h 7.4 km/h 78.1% 0.0 mm
20:29 10.8 °C 7.3 °C 1030.2 hPa NE 3.2 km/h 7.4 km/h 79% 0.0 mm
20:34 10.7 °C 7.2 °C 1030.2 hPa NE 4.7 km/h 7.6 km/h 79% 0.0 mm
20:39 10.5 °C 7.2 °C 1030.6 hPa NE 4.7 km/h 8.7 km/h 80% 0.0 mm
20:44 10.4 °C 7.2 °C 1030.6 hPa NE 5 km/h 9.3 km/h 80.7% 0.0 mm
20:49 10.3 °C 7.2 °C 1030.6 hPa NE 5 km/h 7.4 km/h 81% 0.0 mm
20:54 10.3 °C 7.2 °C 1030.7 hPa NNE 5 km/h 8.4 km/h 81.2% 0.0 mm
20:59 10.2 °C 7.3 °C 1030.7 hPa NE 5.2 km/h 8.4 km/h 82% 0.0 mm
21:04 10.2 °C 7.3 °C 1030.7 hPa NE 5.8 km/h 7.6 km/h 82% 0.0 mm
21:09 10.1 °C 7.2 °C 1030.8 hPa NNE 5.7 km/h 7.6 km/h 82% 0.0 mm
21:14 10.1 °C 7.2 °C 1030.8 hPa NE 5 km/h 7.4 km/h 82.3% 0.0 mm
21:19 10.1 °C 7.2 °C 1030.8 hPa ENE 4.9 km/h 7.4 km/h 82.3% 0.0 mm
21:24 10.1 °C 7.2 °C 1031.0 hPa ENE 4.7 km/h 3.9 km/h 82% 0.0 mm
21:29 10 °C 7 °C 1031.0 hPa ENE 4.3 km/h 4.7 km/h 82% 0.0 mm
21:34 9.9 °C 6.9 °C 1031.0 hPa ENE 2.3 km/h 4.7 km/h 82% 0.0 mm
21:39 9.8 °C 6.9 °C 1031.0 hPa NE 2.3 km/h 5.8 km/h 82% 0.0 mm
21:44 9.7 °C 6.9 °C 1031.0 hPa ONO 2.9 km/h 7.4 km/h 82.9% 0.0 mm
21:49 9.6 °C 6.8 °C 1031.0 hPa ONO 2.9 km/h 7.4 km/h 83% 0.0 mm
21:54 9.4 °C 6.7 °C 1031.1 hPa ONO 3.2 km/h 3.9 km/h 83% 0.0 mm
21:59 9.3 °C 6.6 °C 1031.1 hPa ONO 2.6 km/h   83% 0.0 mm
22:04 9.3 °C 6.7 °C 1031.1 hPa Calm   7.4 km/h 83.9% 0.0 mm
22:09 9.2 °C 6.6 °C 1031.1 hPa ONO 0.5 km/h 5.6 km/h 84% 0.0 mm
22:14 9.2 °C 6.6 °C 1031.1 hPa ONO 3.2 km/h 3.7 km/h 84% 0.0 mm
22:19 9.1 °C 6.6 °C 1031.1 hPa ONO 2.8 km/h 3.9 km/h 84% 0.0 mm
22:24 9.1 °C 6.6 °C 1031.1 hPa Calm   5.8 km/h 84% 0.0 mm
22:29 9.1 °C 6.5 °C 1031.1 hPa SE 0.7 km/h 7.6 km/h 83.7% 0.0 mm
22:34 8.8 °C 6 °C 1031.1 hPa SE 3.9 km/h 7.6 km/h 82.5% 0.0 mm
22:39 8.6 °C 5.7 °C 1031.4 hPa Sur 4 km/h 7.6 km/h 82% 0.0 mm
22:44 8.4 °C 5.5 °C 1031.4 hPa Sur 5 km/h 8.4 km/h 82% 0.0 mm
22:49 8.4 °C 5.4 °C 1031.4 hPa Sur 5.1 km/h 9.5 km/h 81.5% 0.0 mm
22:54 8.4 °C 5.3 °C 1031.4 hPa Sur 5.8 km/h 9.3 km/h 81% 0.0 mm
22:59 8.4 °C 5.2 °C 1031.3 hPa Sur 5.8 km/h 8.4 km/h 80.3% 0.0 mm
23:04 8.4 °C 5 °C 1031.3 hPa Sur 5.8 km/h 11.1 km/h 79.4% 0.0 mm
23:09 8.3 °C 4.7 °C 1031.5 hPa SSE 5.9 km/h 9.3 km/h 78.3% 0.0 mm
23:14 8.2 °C 4.6 °C 1031.5 hPa Sur 6.4 km/h 10 km/h 78% 0.0 mm
23:19 8.2 °C 4.6 °C 1031.5 hPa SSO 6.5 km/h 9.5 km/h 78.1% 0.0 mm
23:24 8.2 °C 4.8 °C 1031.5 hPa SO 6.9 km/h 10 km/h 79% 0.0 mm
23:29 8.2 °C 4.8 °C 1031.5 hPa SO 6.7 km/h 8.4 km/h 79% 0.0 mm
23:34 8.2 °C 4.9 °C 1031.5 hPa SSO 5.8 km/h 7.6 km/h 79.9% 0.0 mm
Murcia-Puente Tocinos, Espa?a
Compliments of Weather Underground - 3 mb

La estación de MeteoMurcia.com, publica sus datos en los siguientes proyectos:

Weather Underground PWS IMURCIAP2 Meteoclimatic www.awekas.at

W3Counter
Web Analytics